Time;durP1;ratioP1;P1;durP2;ratioP2;P2;SDS_P1;SDS_P2;PMS_P1;PMS_P2;Temp;Humidity;BMP_temperature;BMP_pressure;BME280_temperature;BME280_humidity;BME280_pressure;Samples;Min_cycle;Max_cycle;Signal;HPM_P1;HPM_P2
2021/05/21 00:00:29;;;;;;;1.55;0.70;;;15.20;85.00;;;;;;2064424;28;20044;-69
2021/05/21 00:01:31;;;;;;;1.98;0.70;;;15.20;85.20;;;;;;2064530;28;20065;-68
2021/05/21 00:02:31;;;;;;;0.98;0.80;;;15.20;84.90;;;;;;2064012;28;20064;-68
2021/05/21 00:03:32;;;;;;;1.70;0.70;;;15.20;85.70;;;;;;2064236;28;20044;-68
2021/05/21 00:04:32;;;;;;;4.53;1.05;;;15.20;85.80;;;;;;2064336;28;20034;-68
2021/05/21 00:05:33;;;;;;;3.10;0.80;;;15.20;86.10;;;;;;2064528;28;20165;-68
2021/05/21 00:06:34;;;;;;;2.30;0.63;;;15.20;85.80;;;;;;2063654;28;20034;-68
2021/05/21 00:07:34;;;;;;;3.13;0.70;;;15.20;85.90;;;;;;2064715;28;20028;-68
2021/05/21 00:08:35;;;;;;;2.17;0.73;;;15.20;86.20;;;;;;2064202;28;20393;-68
2021/05/21 00:09:36;;;;;;;3.85;0.77;;;15.20;86.50;;;;;;2064455;28;20030;-68
2021/05/21 00:10:37;;;;;;;1.33;0.60;;;15.20;86.90;;;;;;2064359;28;20022;-68
2021/05/21 00:11:38;;;;;;;1.83;0.80;;;15.20;86.20;;;;;;2064409;28;20061;-68
2021/05/21 00:12:38;;;;;;;3.47;0.80;;;15.10;85.80;;;;;;2063649;28;20026;-68
2021/05/21 00:13:39;;;;;;;2.70;0.70;;;15.20;86.40;;;;;;2064454;28;20421;-68
2021/05/21 00:14:39;;;;;;;1.83;0.68;;;15.20;86.40;;;;;;2064288;28;20037;-68
2021/05/21 00:15:40;;;;;;;6.28;0.80;;;15.20;86.20;;;;;;2064658;28;20026;-68
2021/05/21 00:16:40;;;;;;;3.58;0.80;;;15.20;85.90;;;;;;2064101;28;20045;-68
2021/05/21 00:17:41;;;;;;;3.40;0.77;;;15.10;86.30;;;;;;2064375;28;20037;-68
2021/05/21 00:18:42;;;;;;;0.95;0.70;;;15.20;86.70;;;;;;2064344;28;20050;-67
2021/05/21 00:19:42;;;;;;;2.45;0.93;;;15.20;86.60;;;;;;2064511;28;20032;-68
2021/05/21 00:20:43;;;;;;;1.42;0.63;;;15.10;87.00;;;;;;2064286;28;20109;-68
2021/05/21 00:21:43;;;;;;;1.23;0.50;;;15.20;87.20;;;;;;2056203;28;20027;-68
2021/05/21 00:22:44;;;;;;;1.42;0.50;;;15.10;86.70;;;;;;2055599;28;20501;-68
2021/05/21 00:23:48;;;;;;;1.25;0.60;;;15.10;86.50;;;;;;2056385;28;20073;-67
2021/05/21 00:24:48;;;;;;;3.33;0.80;;;15.10;86.70;;;;;;2055528;28;20033;-68
2021/05/21 00:25:49;;;;;;;0.90;0.60;;;15.20;87.20;;;;;;2055717;28;20797;-67
2021/05/21 00:26:50;;;;;;;1.42;0.50;;;15.10;87.00;;;;;;2056272;28;20037;-68
2021/05/21 00:27:51;;;;;;;1.95;0.80;;;15.10;86.90;;;;;;2056134;28;20034;-68
2021/05/21 00:28:51;;;;;;;1.83;0.47;;;15.10;86.60;;;;;;2056238;28;20106;-68
2021/05/21 00:29:52;;;;;;;1.80;0.70;;;15.10;86.50;;;;;;2055585;28;20023;-68
2021/05/21 00:30:52;;;;;;;1.90;0.65;;;15.20;86.70;;;;;;2058585;28;20034;-68
2021/05/21 00:31:53;;;;;;;1.02;0.80;;;15.10;87.00;;;;;;2071496;28;20101;-68
2021/05/21 00:32:53;;;;;;;1.85;0.70;;;15.10;86.60;;;;;;2063694;28;20030;-68
2021/05/21 00:33:54;;;;;;;3.22;0.90;;;15.10;87.50;;;;;;2063993;28;20094;-68
2021/05/21 00:34:54;;;;;;;0.95;0.80;;;15.10;87.40;;;;;;2064594;28;20023;-68
2021/05/21 00:35:55;;;;;;;1.38;0.57;;;15.10;87.70;;;;;;2064045;28;20061;-67
2021/05/21 00:36:55;;;;;;;1.58;0.57;;;15.10;88.00;;;;;;2064324;28;20030;-67
2021/05/21 00:37:56;;;;;;;1.85;0.70;;;15.10;87.50;;;;;;2064142;28;20031;-67
2021/05/21 00:38:56;;;;;;;2.55;0.70;;;15.10;87.70;;;;;;2064283;28;20049;-67
2021/05/21 00:39:57;;;;;;;1.25;0.55;;;15.10;87.30;;;;;;2064185;28;20026;-68
2021/05/21 00:41:01;;;;;;;3.35;0.85;;;15.10;88.20;;;;;;2064212;28;20545;-67
2021/05/21 00:42:01;;;;;;;2.17;0.80;;;15.10;87.90;;;;;;2063967;28;20435;-67
2021/05/21 00:43:02;;;;;;;3.40;0.80;;;15.10;88.40;;;;;;2063615;28;20026;-67
2021/05/21 00:44:03;;;;;;;3.90;0.93;;;15.10;88.80;;;;;;2063916;28;20025;-67
2021/05/21 00:45:04;;;;;;;3.30;0.82;;;15.10;88.80;;;;;;2064411;28;20070;-67
2021/05/21 00:46:05;;;;;;;2.05;0.75;;;15.00;88.20;;;;;;2063306;28;20030;-67
2021/05/21 00:47:05;;;;;;;1.95;0.88;;;15.00;88.00;;;;;;2063455;28;20038;-67
2021/05/21 00:48:06;;;;;;;3.03;0.93;;;15.00;87.80;;;;;;2063955;28;20022;-67
2021/05/21 00:49:07;;;;;;;0.73;0.60;;;15.00;88.20;;;;;;2064351;28;20077;-67
2021/05/21 00:50:08;;;;;;;3.47;0.98;;;15.00;88.20;;;;;;2064387;28;20030;-67
2021/05/21 00:51:08;;;;;;;2.53;0.88;;;15.00;89.10;;;;;;2064404;28;20053;-67
2021/05/21 00:52:09;;;;;;;3.10;0.77;;;15.00;89.10;;;;;;2062989;28;20498;-68
2021/05/21 00:53:12;;;;;;;3.90;0.80;;;15.00;89.00;;;;;;2063994;28;20109;-67
2021/05/21 00:54:19;;;;;;;0.73;0.63;;;15.00;89.30;;;;;;2063952;28;20434;-67
2021/05/21 00:55:20;;;;;;;6.25;0.82;;;15.00;89.60;;;;;;2063994;28;20482;-67
2021/05/21 00:56:21;;;;;;;0.73;0.60;;;15.00;88.90;;;;;;2064046;28;20455;-67
2021/05/21 00:57:21;;;;;;;0.60;0.60;;;14.90;89.10;;;;;;2063420;28;20030;-67
2021/05/21 00:58:22;;;;;;;1.02;0.60;;;14.90;89.60;;;;;;2063457;28;20437;-67
2021/05/21 00:59:23;;;;;;;1.90;0.77;;;14.90;89.80;;;;;;2064197;28;20034;-67
2021/05/21 01:00:23;;;;;;;2.33;0.50;;;14.90;89.30;;;;;;2064690;28;20053;-67
2021/05/21 01:01:28;;;;;;;1.00;0.82;;;14.90;89.40;;;;;;2063582;28;20042;-67
2021/05/21 01:02:29;;;;;;;1.67;0.70;;;14.90;89.50;;;;;;2062910;28;20062;-67
2021/05/21 01:03:29;;;;;;;1.77;0.80;;;14.90;89.70;;;;;;2063815;28;20041;-67
2021/05/21 01:04:30;;;;;;;3.10;0.60;;;14.90;89.40;;;;;;2063933;28;20105;-67
2021/05/21 01:05:31;;;;;;;0.65;0.52;;;14.90;89.20;;;;;;2064217;28;20041;-68
2021/05/21 01:06:32;;;;;;;1.75;0.60;;;14.90;89.50;;;;;;2063933;28;20038;-68
2021/05/21 01:07:33;;;;;;;2.10;0.50;;;14.90;89.40;;;;;;2063920;28;20034;-67
2021/05/21 01:08:37;;;;;;;1.40;0.80;;;14.80;90.00;;;;;;2063786;28;20032;-67
2021/05/21 01:09:37;;;;;;;1.65;0.63;;;14.90;90.50;;;;;;2063978;28;20027;-67
2021/05/21 01:10:38;;;;;;;1.77;0.80;;;14.90;90.10;;;;;;2064416;28;20023;-67
2021/05/21 01:11:38;;;;;;;1.30;0.60;;;14.80;90.10;;;;;;2064061;28;20037;-67
2021/05/21 01:12:39;;;;;;;0.85;0.50;;;14.80;90.00;;;;;;2063251;28;20035;-67
2021/05/21 01:13:40;;;;;;;0.98;0.52;;;14.80;90.20;;;;;;2063978;28;20073;-68
2021/05/21 01:14:48;;;;;;;0.95;0.75;;;14.80;90.10;;;;;;2060806;28;20066;-67
2021/05/21 01:15:49;;;;;;;1.35;0.60;;;14.80;90.20;;;;;;2063899;28;20069;-67
2021/05/21 01:16:50;;;;;;;1.55;0.82;;;14.80;90.20;;;;;;2063563;28;20069;-67
2021/05/21 01:17:50;;;;;;;5.05;0.80;;;14.80;90.30;;;;;;2064144;28;20084;-67
2021/05/21 01:18:51;;;;;;;1.63;0.73;;;14.80;90.50;;;;;;2063941;28;20493;-67
2021/05/21 01:19:52;;;;;;;1.55;0.77;;;14.70;90.40;;;;;;2063850;28;20030;-67
2021/05/21 01:20:53;;;;;;;1.35;0.65;;;14.70;90.40;;;;;;2063755;28;20034;-67
2021/05/21 01:21:54;;;;;;;1.15;0.63;;;14.70;90.70;;;;;;2063583;28;20486;-67
2021/05/21 01:22:54;;;;;;;2.70;0.60;;;14.70;90.70;;;;;;2061304;28;20019;-68
2021/05/21 01:23:55;;;;;;;2.47;0.75;;;14.70;90.80;;;;;;2064708;28;20626;-68
2021/05/21 01:24:55;;;;;;;0.55;0.55;;;14.70;90.80;;;;;;2062905;28;20026;-67
2021/05/21 01:25:56;;;;;;;2.03;0.73;;;14.70;90.80;;;;;;2063053;28;20030;-67
2021/05/21 01:26:59;;;;;;;1.52;0.70;;;14.70;90.90;;;;;;2063873;28;20053;-67
2021/05/21 01:28:00;;;;;;;2.20;0.57;;;14.70;91.20;;;;;;2063902;28;20474;-67
2021/05/21 01:29:01;;;;;;;1.33;0.60;;;14.70;91.10;;;;;;2063853;28;20466;-67
2021/05/21 01:30:05;;;;;;;4.07;1.20;;;14.60;91.20;;;;;;2063784;28;20466;-67
2021/05/21 01:31:06;;;;;;;1.38;0.60;;;14.70;91.40;;;;;;2063498;28;20030;-67
2021/05/21 01:32:09;;;;;;;1.27;0.68;;;14.60;91.30;;;;;;2063868;28;20022;-67
2021/05/21 01:33:11;;;;;;;2.28;1.05;;;14.60;91.20;;;;;;2063728;28;20024;-67
2021/05/21 01:34:13;;;;;;;0.80;0.60;;;14.60;91.40;;;;;;2064010;28;20474;-67
2021/05/21 01:35:16;;;;;;;2.58;1.00;;;14.70;91.60;;;;;;2063749;28;20145;-67
2021/05/21 01:36:18;;;;;;;2.70;0.45;;;14.60;91.40;;;;;;2055966;28;20136;-67
2021/05/21 01:37:20;;;;;;;1.45;0.68;;;14.60;91.50;;;;;;2058884;28;20022;-67
2021/05/21 01:38:21;;;;;;;1.27;0.70;;;14.60;91.40;;;;;;2063796;28;20265;-67
2021/05/21 01:39:22;;;;;;;1.38;0.80;;;14.60;91.60;;;;;;2063847;28;20490;-67
2021/05/21 01:40:24;;;;;;;2.80;0.75;;;14.60;91.70;;;;;;2063727;28;20371;-67
2021/05/21 01:41:25;;;;;;;1.67;0.73;;;14.60;91.80;;;;;;2063583;28;20022;-68
2021/05/21 01:42:26;;;;;;;1.08;0.70;;;14.60;92.10;;;;;;2070474;28;20037;-67
2021/05/21 01:43:27;;;;;;;0.95;0.60;;;14.50;92.10;;;;;;2071276;28;20120;-67
2021/05/21 01:44:28;;;;;;;1.98;0.65;;;14.50;92.00;;;;;;2063775;28;20478;-67
2021/05/21 01:45:29;;;;;;;1.35;0.60;;;14.50;92.10;;;;;;2059468;28;20031;-67
2021/05/21 01:46:30;;;;;;;1.33;0.63;;;14.50;92.10;;;;;;2055649;28;20051;-67
2021/05/21 01:47:31;;;;;;;3.03;0.80;;;14.50;91.90;;;;;;2063615;28;20030;-67
2021/05/21 01:48:32;;;;;;;3.15;0.68;;;14.50;92.20;;;;;;2063461;28;20034;-68
2021/05/21 01:49:33;;;;;;;2.17;0.65;;;14.50;92.10;;;;;;2063756;28;20542;-67
2021/05/21 01:50:33;;;;;;;1.25;0.75;;;14.50;92.20;;;;;;2063448;28;20441;-67
2021/05/21 01:51:34;;;;;;;1.60;0.60;;;14.50;92.10;;;;;;2063611;28;20096;-67
2021/05/21 01:52:37;;;;;;;1.25;0.60;;;14.50;92.40;;;;;;2063351;28;20026;-67
2021/05/21 01:53:37;;;;;;;6.95;0.80;;;14.50;92.40;;;;;;2063619;28;20483;-68
2021/05/21 01:54:38;;;;;;;1.80;1.00;;;14.50;92.30;;;;;;2063585;28;20030;-67
2021/05/21 01:55:39;;;;;;;1.77;0.90;;;14.50;92.30;;;;;;2063720;28;20027;-67
2021/05/21 01:56:39;;;;;;;0.82;0.65;;;14.50;92.50;;;;;;2063259;28;20109;-67
2021/05/21 01:57:40;;;;;;;5.20;0.70;;;14.50;92.50;;;;;;2063604;28;20101;-67
2021/05/21 01:58:41;;;;;;;2.25;0.70;;;14.50;92.50;;;;;;2063425;28;20022;-67
2021/05/21 01:59:41;;;;;;;0.73;0.50;;;14.50;92.60;;;;;;2063702;28;20414;-67
2021/05/21 02:00:42;;;;;;;2.53;1.05;;;14.50;92.60;;;;;;2071143;28;20057;-67
2021/05/21 02:01:42;;;;;;;3.10;0.80;;;14.50;92.70;;;;;;2072431;28;20084;-67
2021/05/21 02:02:43;;;;;;;0.30;0.30;;;14.50;92.80;;;;;;2064410;28;20026;-68
2021/05/21 02:03:43;;;;;;;1.10;0.60;;;14.40;92.80;;;;;;2064683;28;20494;-68
2021/05/21 02:04:44;;;;;;;1.90;0.60;;;14.50;92.80;;;;;;2064828;28;20029;-67
2021/05/21 02:05:44;;;;;;;2.50;0.93;;;14.40;92.70;;;;;;2065026;28;20026;-67
2021/05/21 02:06:45;;;;;;;2.90;0.80;;;14.40;92.70;;;;;;2064529;28;20096;-67
2021/05/21 02:07:47;;;;;;;2.80;0.80;;;14.40;92.70;;;;;;2064917;28;20097;-67
2021/05/21 02:08:47;;;;;;;2.92;0.93;;;14.50;92.80;;;;;;2064274;28;20342;-67
2021/05/21 02:09:58;;;;;;;1.15;0.73;;;14.40;92.90;;;;;;2064982;28;20049;-67
2021/05/21 02:10:58;;;;;;;1.45;0.77;;;14.40;93.20;;;;;;2064815;28;20050;-67
2021/05/21 02:12:04;;;;;;;1.02;0.65;;;14.40;93.10;;;;;;2065084;28;20053;-67
2021/05/21 02:13:05;;;;;;;1.60;0.73;;;14.40;93.10;;;;;;2063455;28;20014;-67
2021/05/21 02:14:05;;;;;;;1.98;0.88;;;14.40;92.90;;;;;;2064880;28;20026;-67
2021/05/21 02:15:08;;;;;;;0.85;0.85;;;14.40;92.80;;;;;;2064692;28;20019;-67
2021/05/21 02:16:08;;;;;;;1.88;1.00;;;14.40;93.00;;;;;;2064773;28;20026;-67
2021/05/21 02:17:09;;;;;;;1.17;0.82;;;14.40;93.10;;;;;;2064713;28;20390;-67
2021/05/21 02:18:09;;;;;;;1.73;0.70;;;14.40;93.20;;;;;;2064852;28;20105;-67
2021/05/21 02:19:10;;;;;;;4.63;1.00;;;14.40;93.10;;;;;;2064610;28;20038;-67
2021/05/21 02:20:13;;;;;;;2.00;0.60;;;14.40;92.90;;;;;;2064896;28;20019;-67
2021/05/21 02:21:14;;;;;;;2.90;0.75;;;14.40;93.20;;;;;;2064241;28;20038;-67
2021/05/21 02:22:18;;;;;;;2.25;0.70;;;14.40;93.30;;;;;;2064455;28;20054;-67
2021/05/21 02:23:18;;;;;;;1.10;0.68;;;14.40;93.50;;;;;;2064537;28;20432;-68
2021/05/21 02:24:19;;;;;;;1.58;0.65;;;14.40;93.40;;;;;;2064057;28;20082;-67
2021/05/21 02:25:19;;;;;;;1.25;0.73;;;14.40;93.40;;;;;;2064057;28;20038;-67
2021/05/21 02:26:20;;;;;;;1.20;0.75;;;14.40;93.60;;;;;;2064693;28;20049;-67
2021/05/21 02:27:24;;;;;;;2.13;0.60;;;14.40;93.50;;;;;;2064565;28;20038;-67
2021/05/21 02:28:25;;;;;;;0.85;0.50;;;14.40;93.50;;;;;;2064779;28;20026;-67
2021/05/21 02:29:26;;;;;;;2.72;0.93;;;14.40;93.40;;;;;;2064362;28;20702;-67
2021/05/21 02:30:26;;;;;;;1.02;0.75;;;14.40;93.60;;;;;;2065043;28;20102;-67
2021/05/21 02:31:27;;;;;;;2.20;1.08;;;14.40;93.80;;;;;;2064454;28;20057;-67
2021/05/21 02:32:28;;;;;;;1.60;0.70;;;14.30;93.70;;;;;;2064288;28;20034;-67
2021/05/21 02:33:28;;;;;;;1.48;0.50;;;14.40;93.80;;;;;;2064684;28;20426;-67
2021/05/21 02:34:32;;;;;;;3.05;0.73;;;14.40;93.90;;;;;;2064697;28;20041;-67
2021/05/21 02:35:32;;;;;;;1.27;0.45;;;14.30;93.40;;;;;;2064508;28;20048;-68
2021/05/21 02:36:33;;;;;;;1.48;0.65;;;14.30;93.70;;;;;;2064587;28;20054;-67
2021/05/21 02:37:34;;;;;;;1.98;0.75;;;14.30;93.90;;;;;;2064759;28;20414;-67
2021/05/21 02:38:34;;;;;;;0.73;0.50;;;14.30;93.90;;;;;;2064541;28;20030;-67
2021/05/21 02:39:35;;;;;;;2.47;0.88;;;14.30;93.90;;;;;;2064642;28;20105;-67
2021/05/21 02:40:36;;;;;;;1.45;0.93;;;14.30;93.90;;;;;;2064286;28;20534;-67
2021/05/21 02:41:36;;;;;;;1.60;0.75;;;14.30;93.90;;;;;;2065010;28;20023;-67
2021/05/21 02:42:37;;;;;;;1.70;0.65;;;14.40;93.80;;;;;;2063908;28;20038;-67
2021/05/21 02:43:38;;;;;;;1.80;0.65;;;14.30;93.90;;;;;;2064446;28;20053;-67
2021/05/21 02:44:38;;;;;;;1.20;0.80;;;14.30;94.00;;;;;;2064608;28;20533;-67
2021/05/21 02:45:39;;;;;;;1.27;0.55;;;14.40;94.00;;;;;;2064826;28;20022;-67
2021/05/21 02:46:40;;;;;;;1.10;0.70;;;14.30;94.00;;;;;;2064441;28;20034;-67
2021/05/21 02:47:40;;;;;;;2.00;0.60;;;14.40;94.30;;;;;;2064352;28;20034;-67
2021/05/21 02:48:41;;;;;;;1.45;0.65;;;14.30;94.20;;;;;;2064414;28;20478;-67
2021/05/21 02:49:41;;;;;;;5.35;0.90;;;14.40;94.30;;;;;;2064799;28;20113;-67
2021/05/21 02:50:43;;;;;;;1.75;0.50;;;14.30;94.30;;;;;;2064366;28;20033;-68
2021/05/21 02:51:43;;;;;;;3.00;1.08;;;14.40;94.30;;;;;;2064610;28;20062;-67
2021/05/21 02:52:44;;;;;;;2.25;1.25;;;14.40;94.30;;;;;;2063967;28;20038;-67
2021/05/21 02:53:44;;;;;;;2.60;0.80;;;14.30;94.40;;;;;;2064392;28;20461;-67
2021/05/21 02:54:45;;;;;;;1.60;0.60;;;14.30;94.40;;;;;;2064325;28;20054;-67
2021/05/21 02:55:45;;;;;;;1.40;0.77;;;14.40;94.40;;;;;;2064464;28;20029;-67
2021/05/21 02:56:46;;;;;;;3.88;1.08;;;14.40;94.30;;;;;;2071857;28;20095;-67
2021/05/21 02:57:47;;;;;;;3.03;0.70;;;14.30;94.20;;;;;;2072160;28;20037;-68
2021/05/21 02:58:47;;;;;;;3.95;0.82;;;14.40;94.20;;;;;;2063446;28;20022;-67
2021/05/21 02:59:48;;;;;;;2.30;0.75;;;14.30;94.50;;;;;;2064051;28;20077;-67
2021/05/21 03:00:48;;;;;;;0.93;0.65;;;14.30;94.40;;;;;;2064732;28;20036;-67
2021/05/21 03:01:49;;;;;;;1.30;0.90;;;14.30;94.50;;;;;;2063791;28;20092;-67
2021/05/21 03:02:50;;;;;;;0.73;0.57;;;14.30;94.60;;;;;;2062338;28;20022;-67
2021/05/21 03:03:51;;;;;;;1.08;0.90;;;14.30;94.80;;;;;;2063623;28;20054;-68
2021/05/21 03:04:52;;;;;;;1.33;0.90;;;14.30;94.70;;;;;;2063184;28;20035;-67
2021/05/21 03:05:55;;;;;;;8.23;1.20;;;14.30;94.80;;;;;;2063649;28;20093;-68
2021/05/21 03:06:55;;;;;;;1.55;0.82;;;14.30;94.60;;;;;;2063588;28;20390;-67
2021/05/21 03:07:58;;;;;;;4.00;0.93;;;14.30;94.70;;;;;;2063681;28;20113;-67
2021/05/21 03:08:58;;;;;;;4.15;1.05;;;14.30;94.60;;;;;;2063369;28;20390;-67
2021/05/21 03:09:59;;;;;;;2.13;0.82;;;14.30;94.80;;;;;;2063124;28;20049;-67
2021/05/21 03:11:00;;;;;;;1.30;0.60;;;14.30;94.70;;;;;;2062167;28;20075;-68
2021/05/21 03:12:00;;;;;;;0.77;0.50;;;14.30;94.80;;;;;;2063553;28;20198;-67
2021/05/21 03:13:01;;;;;;;2.33;0.70;;;14.30;94.70;;;;;;2062296;28;20597;-68
2021/05/21 03:14:02;;;;;;;1.88;0.60;;;14.30;94.70;;;;;;2062823;28;20041;-67
2021/05/21 03:15:03;;;;;;;3.03;0.75;;;14.30;94.60;;;;;;2063237;28;20026;-68
2021/05/21 03:16:04;;;;;;;3.10;0.80;;;14.30;94.70;;;;;;2062846;28;20069;-67
2021/05/21 03:17:05;;;;;;;2.10;0.70;;;14.30;94.80;;;;;;2063369;28;20073;-67
2021/05/21 03:18:10;;;;;;;1.63;0.70;;;14.30;94.80;;;;;;2062691;28;20382;-67
2021/05/21 03:19:11;;;;;;;1.77;0.60;;;14.30;94.90;;;;;;2063347;28;20390;-67
2021/05/21 03:20:13;;;;;;;2.75;0.80;;;14.30;94.90;;;;;;2062991;28;20049;-67
2021/05/21 03:21:14;;;;;;;1.77;0.73;;;14.30;94.80;;;;;;2063058;28;20125;-67
2021/05/21 03:22:14;;;;;;;1.17;0.82;;;14.30;94.70;;;;;;2062306;28;20485;-68
2021/05/21 03:23:16;;;;;;;1.23;0.93;;;14.30;94.70;;;;;;2062912;28;20110;-67
2021/05/21 03:24:16;;;;;;;1.75;0.70;;;14.20;94.80;;;;;;2062681;28;20029;-67
2021/05/21 03:25:17;;;;;;;3.30;0.90;;;14.30;95.00;;;;;;2062968;28;20061;-67
2021/05/21 03:26:17;;;;;;;1.35;0.70;;;14.20;95.00;;;;;;2062792;28;20176;-67
2021/05/21 03:27:18;;;;;;;1.48;0.68;;;14.20;95.00;;;;;;2063034;28;20390;-67
2021/05/21 03:28:19;;;;;;;3.33;0.82;;;14.20;95.10;;;;;;2062845;28;20045;-67
2021/05/21 03:29:19;;;;;;;3.00;0.85;;;14.20;95.00;;;;;;2063100;28;20046;-67
2021/05/21 03:30:20;;;;;;;3.15;0.82;;;14.20;95.20;;;;;;2062916;28;20031;-67
2021/05/21 03:31:21;;;;;;;1.05;0.60;;;14.30;95.20;;;;;;2063058;28;20371;-67
2021/05/21 03:32:22;;;;;;;2.17;0.88;;;14.20;95.00;;;;;;2062168;28;20669;-67
2021/05/21 03:33:22;;;;;;;3.20;1.00;;;14.30;95.20;;;;;;2063224;28;20101;-67
2021/05/21 03:34:23;;;;;;;1.30;0.80;;;14.20;95.20;;;;;;2062543;28;20456;-68
2021/05/21 03:35:23;;;;;;;1.83;0.63;;;14.20;95.20;;;;;;2063286;28;20098;-67
2021/05/21 03:36:24;;;;;;;2.33;0.68;;;14.20;95.10;;;;;;2062920;28;20030;-67
2021/05/21 03:37:25;;;;;;;2.05;0.60;;;14.20;95.50;;;;;;2063083;28;20506;-67
2021/05/21 03:38:27;;;;;;;2.90;0.70;;;14.20;95.40;;;;;;2062880;28;20548;-67
2021/05/21 03:39:28;;;;;;;1.50;0.88;;;14.20;95.40;;;;;;2063097;28;20030;-67
2021/05/21 03:40:29;;;;;;;2.00;0.65;;;14.20;95.30;;;;;;2063004;28;20073;-67
2021/05/21 03:41:30;;;;;;;1.05;0.70;;;14.20;95.40;;;;;;2063185;28;20475;-67
2021/05/21 03:42:30;;;;;;;2.67;0.80;;;14.20;95.60;;;;;;2061939;28;20390;-67
2021/05/21 03:43:31;;;;;;;2.75;0.80;;;14.20;95.50;;;;;;2062888;28;20027;-68
2021/05/21 03:44:31;;;;;;;1.85;0.98;;;14.20;95.50;;;;;;2062872;28;20030;-67
2021/05/21 03:45:33;;;;;;;1.95;1.20;;;14.20;95.50;;;;;;2063256;28;20148;-67
2021/05/21 03:46:33;;;;;;;2.55;0.80;;;14.20;95.70;;;;;;2063097;28;20039;-67
2021/05/21 03:47:34;;;;;;;5.35;1.00;;;14.20;95.60;;;;;;2063040;28;20026;-67
2021/05/21 03:48:35;;;;;;;1.13;0.88;;;14.20;95.60;;;;;;2062601;28;20027;-67
2021/05/21 03:49:35;;;;;;;2.63;0.63;;;14.20;95.70;;;;;;2063068;28;20023;-67
2021/05/21 03:50:36;;;;;;;1.08;0.65;;;14.20;95.70;;;;;;2062769;28;20026;-67
2021/05/21 03:51:36;;;;;;;0.98;0.68;;;14.20;95.80;;;;;;2062196;28;20081;-68
2021/05/21 03:52:37;;;;;;;1.10;0.70;;;14.20;95.80;;;;;;2061706;28;20084;-68
2021/05/21 03:53:37;;;;;;;4.82;1.13;;;14.20;95.90;;;;;;2062965;28;20026;-68
2021/05/21 03:54:38;;;;;;;0.82;0.60;;;14.20;95.80;;;;;;2062875;28;20478;-67
2021/05/21 03:55:38;;;;;;;2.53;0.70;;;14.20;96.00;;;;;;2062568;28;20023;-67
2021/05/21 03:56:39;;;;;;;1.13;0.55;;;14.20;96.00;;;;;;2062864;28;20026;-68
2021/05/21 03:57:40;;;;;;;3.95;1.10;;;14.20;96.10;;;;;;2062984;28;20050;-67
2021/05/21 03:58:41;;;;;;;2.35;0.90;;;14.20;96.00;;;;;;2063012;28;20030;-68
2021/05/21 03:59:42;;;;;;;2.78;0.85;;;14.20;96.20;;;;;;2062677;28;20030;-67
2021/05/21 04:00:42;;;;;;;1.95;0.80;;;14.20;96.30;;;;;;2062966;28;20401;-67
2021/05/21 04:01:45;;;;;;;2.38;0.93;;;14.20;96.40;;;;;;2062754;28;20390;-68
2021/05/21 04:02:47;;;;;;;1.73;1.13;;;14.20;96.10;;;;;;2062436;28;20026;-68
2021/05/21 04:03:48;;;;;;;4.47;0.82;;;14.20;96.30;;;;;;2062478;28;20113;-68
2021/05/21 04:04:51;;;;;;;1.42;0.73;;;14.20;96.40;;;;;;2062784;28;20379;-67
2021/05/21 04:05:52;;;;;;;2.22;0.60;;;14.20;96.40;;;;;;2062862;28;20550;-67
2021/05/21 04:06:52;;;;;;;4.57;0.93;;;14.20;96.60;;;;;;2062943;28;20406;-68
2021/05/21 04:07:53;;;;;;;0.88;0.70;;;14.30;96.20;;;;;;2062730;28;20031;-67
2021/05/21 04:08:54;;;;;;;1.50;1.00;;;14.30;96.30;;;;;;2063133;28;20470;-67
2021/05/21 04:09:55;;;;;;;2.42;0.80;;;14.30;96.50;;;;;;2062605;28;20500;-67
2021/05/21 04:10:55;;;;;;;2.85;0.77;;;14.30;96.50;;;;;;2062997;28;20134;-67
2021/05/21 04:11:56;;;;;;;1.73;0.88;;;14.20;96.30;;;;;;2062649;28;20428;-67
2021/05/21 04:12:57;;;;;;;1.88;0.60;;;14.30;96.30;;;;;;2062498;28;20549;-67
2021/05/21 04:13:57;;;;;;;0.73;0.70;;;14.30;96.40;;;;;;2062725;28;20027;-67
2021/05/21 04:14:58;;;;;;;1.33;0.80;;;14.30;96.60;;;;;;2062659;28;20026;-67
2021/05/21 04:15:58;;;;;;;1.05;0.60;;;14.30;96.60;;;;;;2062506;28;20057;-67
2021/05/21 04:16:59;;;;;;;2.72;0.68;;;14.30;96.70;;;;;;2063211;28;20097;-67
2021/05/21 04:18:00;;;;;;;2.17;0.90;;;14.30;96.80;;;;;;2062607;28;20584;-67
2021/05/21 04:19:01;;;;;;;2.65;0.90;;;14.30;96.60;;;;;;2063154;28;20022;-67
2021/05/21 04:20:01;;;;;;;4.25;1.10;;;14.30;96.50;;;;;;2062495;28;20029;-67
2021/05/21 04:21:02;;;;;;;2.75;1.13;;;14.30;96.80;;;;;;2062737;28;20256;-67
2021/05/21 04:22:03;;;;;;;2.45;0.70;;;14.40;96.80;;;;;;2062790;28;20041;-67
2021/05/21 04:23:04;;;;;;;5.75;0.90;;;14.40;96.60;;;;;;2062410;28;20122;-67
2021/05/21 04:24:05;;;;;;;2.88;1.02;;;14.40;96.60;;;;;;2062504;28;20061;-67
2021/05/21 04:25:06;;;;;;;1.58;0.75;;;14.40;96.70;;;;;;2062793;28;20094;-67
2021/05/21 04:26:07;;;;;;;2.35;1.00;;;14.40;96.70;;;;;;2062605;28;20029;-67
2021/05/21 04:27:08;;;;;;;3.70;1.02;;;14.40;96.90;;;;;;2062821;28;20031;-67
2021/05/21 04:28:10;;;;;;;3.70;1.40;;;14.40;96.90;;;;;;2062574;28;20430;-68
2021/05/21 04:29:11;;;;;;;2.40;0.88;;;14.40;97.00;;;;;;2062647;28;20030;-67
2021/05/21 04:30:12;;;;;;;2.40;1.00;;;14.40;96.90;;;;;;2062667;28;20018;-67
2021/05/21 04:31:12;;;;;;;1.58;1.05;;;14.40;97.10;;;;;;2062764;28;20073;-67
2021/05/21 04:32:13;;;;;;;1.00;0.70;;;14.50;97.00;;;;;;2062201;28;20380;-67
2021/05/21 04:33:14;;;;;;;4.78;0.90;;;14.50;96.90;;;;;;2062721;28;20106;-68
2021/05/21 04:34:14;;;;;;;1.55;0.88;;;14.50;96.90;;;;;;2062642;28;20022;-68
2021/05/21 04:35:15;;;;;;;1.85;0.80;;;14.50;97.10;;;;;;2062935;28;20023;-68
2021/05/21 04:36:15;;;;;;;3.83;0.80;;;14.50;96.90;;;;;;2063103;28;20137;-67
2021/05/21 04:37:16;;;;;;;1.17;0.70;;;14.50;97.00;;;;;;2064111;28;20053;-67
2021/05/21 04:38:16;;;;;;;2.35;0.70;;;14.60;96.90;;;;;;2064212;28;20030;-67
2021/05/21 04:39:17;;;;;;;3.75;0.93;;;14.60;97.00;;;;;;2064146;28;20037;-67
2021/05/21 04:40:18;;;;;;;3.03;1.00;;;14.70;97.00;;;;;;2064540;28;20026;-67
2021/05/21 04:41:18;;;;;;;1.55;0.77;;;14.70;96.80;;;;;;2064123;28;20038;-67
2021/05/21 04:42:19;;;;;;;1.38;0.98;;;14.80;96.90;;;;;;2063181;28;20111;-67
2021/05/21 04:43:26;;;;;;;1.10;0.80;;;14.90;96.80;;;;;;2063799;28;20077;-67
2021/05/21 04:44:27;;;;;;;0.85;0.68;;;14.90;96.60;;;;;;2064081;28;20037;-68
2021/05/21 04:45:27;;;;;;;1.60;0.82;;;15.00;96.40;;;;;;2063949;28;20113;-67
2021/05/21 04:46:28;;;;;;;5.25;1.48;;;15.00;96.30;;;;;;2064401;28;20031;-67
2021/05/21 04:47:29;;;;;;;3.35;1.15;;;15.10;96.20;;;;;;2064129;28;20030;-67
2021/05/21 04:48:29;;;;;;;1.70;0.73;;;15.10;95.90;;;;;;2064395;28;20747;-67
2021/05/21 04:49:33;;;;;;;1.88;0.82;;;15.10;95.90;;;;;;2064069;28;20022;-67
2021/05/21 04:50:34;;;;;;;2.92;1.10;;;15.10;95.80;;;;;;2064236;28;20041;-68
2021/05/21 04:51:34;;;;;;;1.45;0.70;;;15.20;95.80;;;;;;2063554;28;20033;-67
2021/05/21 04:52:35;;;;;;;1.17;0.60;;;15.20;95.70;;;;;;2063744;28;20029;-67
2021/05/21 04:53:37;;;;;;;0.95;0.65;;;15.20;95.40;;;;;;2064128;28;20030;-68
2021/05/21 04:54:39;;;;;;;1.85;0.95;;;15.20;95.40;;;;;;2057302;28;20355;-68
2021/05/21 04:55:41;;;;;;;3.90;1.00;;;15.30;95.30;;;;;;2063156;28;20077;-68
2021/05/21 04:56:42;;;;;;;2.10;0.80;;;15.30;95.60;;;;;;2064008;28;20105;-68
2021/05/21 04:57:49;;;;;;;1.75;0.80;;;15.30;95.30;;;;;;2063897;28;20034;-67
2021/05/21 04:58:49;;;;;;;1.45;0.65;;;15.30;95.50;;;;;;2063996;28;20036;-68
2021/05/21 04:59:50;;;;;;;1.35;0.57;;;15.30;95.20;;;;;;2063787;28;20037;-68
2021/05/21 05:00:50;;;;;;;2.65;0.93;;;15.40;95.30;;;;;;2064102;28;20030;-67
2021/05/21 05:01:52;;;;;;;2.15;0.80;;;15.40;95.00;;;;;;2064084;28;20026;-67
2021/05/21 05:02:52;;;;;;;4.38;0.80;;;15.40;95.10;;;;;;2063164;28;20064;-67
2021/05/21 05:03:53;;;;;;;1.50;0.80;;;15.40;94.90;;;;;;2064120;28;20509;-67
2021/05/21 05:04:53;;;;;;;4.50;0.93;;;15.40;95.10;;;;;;2064070;28;20093;-67
2021/05/21 05:05:54;;;;;;;3.13;1.00;;;15.40;95.00;;;;;;2063889;28;20145;-67
2021/05/21 05:06:55;;;;;;;1.60;0.75;;;15.50;94.80;;;;;;2063875;28;20042;-68
2021/05/21 05:07:55;;;;;;;1.92;0.60;;;15.50;94.70;;;;;;2063834;28;20505;-68
2021/05/21 05:08:56;;;;;;;2.63;1.10;;;15.50;94.90;;;;;;2064018;28;20381;-68
2021/05/21 05:09:56;;;;;;;1.55;0.70;;;15.50;94.80;;;;;;2064027;28;20422;-68
2021/05/21 05:10:57;;;;;;;5.20;0.73;;;15.50;94.70;;;;;;2064281;28;20083;-67
2021/05/21 05:11:59;;;;;;;4.95;0.82;;;15.60;94.90;;;;;;2063698;28;20030;-67
2021/05/21 05:12:59;;;;;;;3.05;0.70;;;15.60;94.70;;;;;;2063506;28;20486;-68
2021/05/21 05:14:00;;;;;;;3.60;1.10;;;15.60;94.70;;;;;;2063863;28;20409;-67
2021/05/21 05:15:00;;;;;;;3.75;0.93;;;15.60;94.50;;;;;;2064072;28;20021;-68
2021/05/21 05:16:01;;;;;;;2.17;0.88;;;15.70;94.60;;;;;;2063889;28;20104;-68
2021/05/21 05:17:02;;;;;;;1.38;0.68;;;15.70;94.90;;;;;;2063950;28;20059;-68
2021/05/21 05:18:03;;;;;;;3.33;0.88;;;15.80;94.90;;;;;;2063838;28;20105;-67